createdAt,value
2023-02-17T00:01:39.742Z,10.63
2023-02-17T00:04:07.859Z,11.23
2023-02-17T00:06:35.989Z,10.70
2023-02-17T00:09:04.608Z,10.90
2023-02-17T00:11:32.740Z,11.40
2023-02-17T00:14:01.437Z,11.93
2023-02-17T00:16:29.733Z,10.90
2023-02-17T00:19:00.984Z,10.63
2023-02-17T00:21:32.876Z,12.23
2023-02-17T00:24:01.506Z,11.77
2023-02-17T00:26:29.898Z,11.37
2023-02-17T00:28:59.783Z,10.90
2023-02-17T00:31:28.017Z,12.47
2023-02-17T00:33:56.860Z,11.70
2023-02-17T00:36:27.208Z,12.47
2023-02-17T00:38:57.524Z,11.37
2023-02-17T00:41:27.059Z,11.57
2023-02-17T00:43:55.467Z,11.93
2023-02-17T00:46:23.978Z,12.80
2023-02-17T00:48:52.243Z,12.50
2023-02-17T00:51:21.100Z,12.50
2023-02-17T00:53:51.050Z,12.63
2023-02-17T00:56:19.442Z,12.57
2023-02-17T00:58:47.573Z,13.27
2023-02-17T01:01:15.858Z,12.87
2023-02-17T01:03:44.015Z,13.83
2023-02-17T01:06:20.006Z,12.70
2023-02-17T01:08:48.254Z,12.87
2023-02-17T01:11:20.152Z,12.77
2023-02-17T01:13:48.339Z,13.30
2023-02-17T01:16:19.853Z,13.70
2023-02-17T01:18:47.983Z,13.00
2023-02-17T01:21:19.736Z,13.63
2023-02-17T01:23:49.511Z,13.37
2023-02-17T01:26:21.723Z,12.77
2023-02-17T01:28:51.385Z,13.13
2023-02-17T01:31:20.302Z,14.40
2023-02-17T01:33:48.566Z,12.90
2023-02-17T01:36:18.983Z,13.53
2023-02-17T01:38:47.589Z,12.57
2023-02-17T01:41:18.134Z,13.80
2023-02-17T01:44:21.877Z,15.40
2023-02-17T01:46:52.969Z,13.70
2023-02-17T01:49:32.682Z,12.63
2023-02-17T01:52:06.941Z,11.40
2023-02-17T01:54:42.519Z,13.20
2023-02-17T01:57:12.444Z,12.50
2023-02-17T01:59:42.389Z,13.20
2023-02-17T02:02:12.619Z,13.53
2023-02-17T02:04:45.149Z,13.30
2023-02-17T02:07:18.209Z,13.07
2023-02-17T02:09:52.078Z,13.53
2023-02-17T02:12:21.815Z,14.07
2023-02-17T02:14:51.115Z,14.27
2023-02-17T02:17:34.925Z,15.43
2023-02-17T02:20:45.176Z,15.33
2023-02-17T02:23:34.640Z,15.30
2023-02-17T02:26:33.861Z,15.20
2023-02-17T02:29:26.433Z,13.70
2023-02-17T02:32:09.435Z,15.60
2023-02-17T02:34:44.770Z,14.70
2023-02-17T02:37:18.921Z,13.83
2023-02-17T02:39:51.860Z,14.73
2023-02-17T02:42:23.255Z,15.23
2023-02-17T02:44:51.815Z,14.37
2023-02-17T02:47:43.673Z,14.60
2023-02-17T02:50:15.653Z,13.30
2023-02-17T02:52:56.835Z,13.87
2023-02-17T02:55:37.808Z,13.93
2023-02-17T02:58:14.196Z,15.10
2023-02-17T03:00:48.344Z,14.50
2023-02-17T03:03:26.394Z,14.40
2023-02-17T03:06:02.745Z,14.70
2023-02-17T03:08:35.857Z,15.33
2023-02-17T03:11:04.747Z,15.70
2023-02-17T03:13:38.060Z,15.17
2023-02-17T03:16:07.318Z,15.50
2023-02-17T03:18:36.511Z,15.33
2023-02-17T03:21:13.955Z,15.60
2023-02-17T03:23:42.074Z,14.77
2023-02-17T03:26:10.234Z,15.37
2023-02-17T03:28:38.509Z,15.43
2023-02-17T03:31:06.645Z,15.20
2023-02-17T03:33:34.781Z,16.10
2023-02-17T03:36:03.261Z,15.50
2023-02-17T03:38:32.811Z,14.40
2023-02-17T03:41:00.905Z,15.13
2023-02-17T03:43:29.013Z,14.37
2023-02-17T03:45:57.217Z,14.43
2023-02-17T03:48:25.311Z,13.67
2023-02-17T03:50:53.377Z,13.77
2023-02-17T03:53:21.553Z,15.03
2023-02-17T03:55:51.033Z,13.90
2023-02-17T03:58:19.164Z,13.60
2023-02-17T04:00:47.240Z,12.53
2023-02-17T04:03:15.327Z,12.60
2023-02-17T04:05:45.792Z,12.00
2023-02-17T04:08:14.001Z,12.60
2023-02-17T04:10:42.077Z,11.73
2023-02-17T04:13:11.862Z,12.50
2023-02-17T04:15:39.969Z,12.60
2023-02-17T04:18:08.028Z,11.70
2023-02-17T04:20:36.325Z,11.50
2023-02-17T04:23:04.434Z,12.27
2023-02-17T04:25:35.266Z,12.10
2023-02-17T04:28:03.481Z,12.90
2023-02-17T04:30:33.320Z,12.87
2023-02-17T04:33:01.790Z,12.07
2023-02-17T04:35:30.092Z,12.10
2023-02-17T04:37:58.280Z,12.17
2023-02-17T04:40:26.673Z,11.63
2023-02-17T04:42:54.753Z,13.67
2023-02-17T04:45:24.500Z,13.10
2023-02-17T04:47:54.179Z,11.80
2023-02-17T04:50:22.771Z,11.37
2023-02-17T04:52:50.872Z,12.20
2023-02-17T04:55:19.107Z,12.73
2023-02-17T04:57:47.264Z,11.80
2023-02-17T05:00:15.843Z,11.60
2023-02-17T05:02:44.718Z,11.10
2023-02-17T05:05:15.380Z,11.60
2023-02-17T05:07:43.805Z,11.00
2023-02-17T05:10:12.679Z,11.37
2023-02-17T05:12:41.144Z,12.13
2023-02-17T05:15:10.302Z,11.73
2023-02-17T05:17:38.740Z,10.70
2023-02-17T05:20:08.918Z,12.00
2023-02-17T05:22:38.456Z,13.23
2023-02-17T05:25:07.427Z,12.50
2023-02-17T05:27:35.627Z,12.37
2023-02-17T05:30:04.428Z,12.40
2023-02-17T05:32:32.568Z,12.30
2023-02-17T05:35:00.743Z,11.50
2023-02-17T05:37:28.896Z,12.00
2023-02-17T05:39:58.358Z,11.87
2023-02-17T05:42:28.933Z,11.20
2023-02-17T05:44:57.717Z,11.23
2023-02-17T05:47:27.614Z,10.73
2023-02-17T05:49:56.014Z,11.70
2023-02-17T05:52:24.144Z,11.90
2023-02-17T05:54:52.279Z,12.30
2023-02-17T05:57:22.047Z,11.30
2023-02-17T05:59:50.212Z,11.90
2023-02-17T06:02:18.437Z,12.47
2023-02-17T06:04:46.659Z,13.20
2023-02-17T06:07:15.003Z,12.73
2023-02-17T06:09:43.230Z,12.13
2023-02-17T06:12:13.021Z,14.07
2023-02-17T06:14:42.911Z,13.43
2023-02-17T06:17:11.783Z,13.50
2023-02-17T06:19:39.960Z,13.63
2023-02-17T06:22:08.070Z,14.63
2023-02-17T06:24:36.131Z,15.23
2023-02-17T06:27:07.665Z,13.93
2023-02-17T06:29:35.886Z,14.20
2023-02-17T06:32:05.678Z,14.07
2023-02-17T06:34:33.784Z,14.57
2023-02-17T06:37:02.069Z,14.20
2023-02-17T06:39:30.119Z,14.40
2023-02-17T06:41:58.193Z,15.27
2023-02-17T06:44:27.042Z,15.47
2023-02-17T06:46:55.271Z,14.83
2023-02-17T06:49:24.777Z,16.07
2023-02-17T06:51:53.146Z,17.33
2023-02-17T06:54:21.368Z,16.13
2023-02-17T06:56:49.589Z,16.73
2023-02-17T06:59:17.648Z,15.47
2023-02-17T07:01:45.804Z,14.70
2023-02-17T07:04:13.976Z,15.60
2023-02-17T07:06:43.874Z,14.80
2023-02-17T07:09:13.897Z,16.53
2023-02-17T07:11:42.982Z,13.80
2023-02-17T07:14:11.156Z,14.60
2023-02-17T07:16:40.190Z,15.50
2023-02-17T07:19:08.411Z,14.40
2023-02-17T07:21:36.521Z,13.00
2023-02-17T07:24:06.620Z,14.20
2023-02-17T07:26:37.749Z,15.67
2023-02-17T07:29:09.248Z,14.53
2023-02-17T07:31:38.800Z,15.47
2023-02-17T07:34:07.156Z,15.80
2023-02-17T07:36:35.967Z,15.40
2023-02-17T07:39:07.183Z,16.27
2023-02-17T07:41:35.446Z,15.77
2023-02-17T07:44:03.683Z,16.30
2023-02-17T07:46:31.898Z,16.10
2023-02-17T07:49:00.352Z,16.23
2023-02-17T07:51:28.878Z,17.70
2023-02-17T07:53:57.047Z,15.03
2023-02-17T07:56:26.706Z,14.43
2023-02-17T07:58:55.060Z,15.23
2023-02-17T08:01:24.777Z,17.10
2023-02-17T08:03:53.872Z,15.20
2023-02-17T08:06:24.237Z,14.80
2023-02-17T08:09:11.012Z,15.77
2023-02-17T08:11:58.555Z,15.30
2023-02-17T08:14:28.731Z,14.90
2023-02-17T08:16:57.301Z,16.37
2023-02-17T08:19:28.342Z,17.50
2023-02-17T08:21:58.359Z,18.57
2023-02-17T08:24:27.399Z,18.83
2023-02-17T08:26:57.160Z,19.63
2023-02-17T08:29:25.348Z,19.30
2023-02-17T08:31:54.518Z,19.37
2023-02-17T08:34:22.736Z,20.87
2023-02-17T08:36:50.874Z,20.63
2023-02-17T08:39:19.540Z,19.40
2023-02-17T08:41:48.020Z,21.33
2023-02-17T08:44:21.029Z,19.80
2023-02-17T08:46:51.109Z,18.20
2023-02-17T08:49:21.968Z,18.47
2023-02-17T08:51:50.934Z,18.27
2023-02-17T08:54:19.182Z,18.43
2023-02-17T08:56:47.381Z,20.13
2023-02-17T08:59:15.671Z,19.83
2023-02-17T09:01:45.794Z,19.60
2023-02-17T09:04:15.376Z,19.50
2023-02-17T09:06:45.981Z,19.30
2023-02-17T09:09:15.989Z,18.30
2023-02-17T09:11:45.263Z,17.33
2023-02-17T09:14:13.769Z,17.20
2023-02-17T09:16:42.256Z,19.10
2023-02-17T09:19:11.827Z,17.60
2023-02-17T09:21:39.901Z,17.43
2023-02-17T09:24:08.277Z,16.10
2023-02-17T09:26:37.129Z,18.03
2023-02-17T09:29:05.898Z,16.17
2023-02-17T09:31:36.111Z,16.63
2023-02-17T09:34:05.457Z,17.47
2023-02-17T09:36:38.988Z,17.93
2023-02-17T09:39:07.538Z,17.00
2023-02-17T09:41:42.738Z,16.57
2023-02-17T09:44:21.926Z,17.63
2023-02-17T09:47:02.701Z,16.93
2023-02-17T09:49:38.087Z,18.03
2023-02-17T09:52:15.689Z,17.03
2023-02-17T09:54:53.217Z,17.47
2023-02-17T09:57:25.812Z,17.80
2023-02-17T09:59:58.206Z,17.67
2023-02-17T10:02:31.019Z,18.10
2023-02-17T10:05:04.530Z,17.23
2023-02-17T10:07:41.392Z,16.20
2023-02-17T10:10:12.977Z,16.80
2023-02-17T10:12:47.171Z,17.73
2023-02-17T10:15:19.505Z,17.53
2023-02-17T10:17:53.254Z,18.27
2023-02-17T10:20:24.456Z,18.57
2023-02-17T10:22:59.018Z,18.13
2023-02-17T10:25:50.077Z,18.97
2023-02-17T10:28:23.735Z,18.17
2023-02-17T10:31:03.544Z,19.40
2023-02-17T10:33:37.687Z,19.40
2023-02-17T10:36:14.074Z,20.07
2023-02-17T10:38:51.710Z,20.67
2023-02-17T10:41:24.208Z,19.10
2023-02-17T10:43:53.230Z,20.13
2023-02-17T10:46:27.759Z,19.23
2023-02-17T10:48:58.626Z,18.67
2023-02-17T10:51:29.333Z,19.20
2023-02-17T10:54:04.284Z,19.33
2023-02-17T10:56:38.910Z,19.47
2023-02-17T10:59:14.489Z,19.17
2023-02-17T11:01:43.007Z,19.50
2023-02-17T11:04:14.043Z,18.70
2023-02-17T11:06:45.526Z,19.60
2023-02-17T11:09:28.687Z,22.07
2023-02-17T11:12:00.825Z,18.80
2023-02-17T11:14:31.462Z,19.60
2023-02-17T11:17:01.974Z,18.73
2023-02-17T11:19:34.047Z,17.60
2023-02-17T11:22:04.691Z,18.53
2023-02-17T11:24:36.510Z,18.13
2023-02-17T11:27:09.572Z,18.83
2023-02-17T11:29:38.362Z,17.67
2023-02-17T11:32:09.121Z,17.60
2023-02-17T11:34:39.907Z,17.73
2023-02-17T11:37:22.162Z,17.40
2023-02-17T11:39:53.589Z,17.97
2023-02-17T11:42:24.075Z,18.23
2023-02-17T11:44:53.052Z,17.63
2023-02-17T11:47:29.971Z,16.67
2023-02-17T11:50:10.349Z,15.77
2023-02-17T11:53:03.337Z,18.00
2023-02-17T11:55:51.887Z,17.10
2023-02-17T11:58:31.189Z,15.30
2023-02-17T12:01:12.878Z,16.50
2023-02-17T12:04:03.956Z,16.80
2023-02-17T12:06:44.537Z,16.00
2023-02-17T12:09:22.862Z,15.73
2023-02-17T12:12:02.675Z,16.10
2023-02-17T12:14:44.282Z,14.70
2023-02-17T12:17:22.915Z,15.87
2023-02-17T12:19:59.332Z,14.93
2023-02-17T12:22:34.460Z,16.37
2023-02-17T12:25:23.106Z,17.03
2023-02-17T12:28:10.577Z,16.00
2023-02-17T12:30:53.688Z,16.03
2023-02-17T12:33:47.934Z,13.77
2023-02-17T12:36:18.268Z,13.80
2023-02-17T12:38:50.930Z,13.17
2023-02-17T12:41:22.998Z,13.27
2023-02-17T12:43:56.243Z,15.10
2023-02-17T12:46:28.438Z,14.00
2023-02-17T12:49:01.305Z,14.43
2023-02-17T12:51:35.309Z,13.70
2023-02-17T12:54:09.805Z,13.70
2023-02-17T12:56:58.570Z,13.33
2023-02-17T12:59:35.064Z,13.13
2023-02-17T13:02:05.291Z,13.70
2023-02-17T13:04:35.073Z,13.47
2023-02-17T13:07:34.805Z,13.77
2023-02-17T13:10:03.522Z,14.30
2023-02-17T13:12:41.570Z,12.73
2023-02-17T13:15:31.434Z,14.37
2023-02-17T13:18:03.559Z,12.90
2023-02-17T13:20:54.224Z,13.57
2023-02-17T13:23:31.496Z,14.33
2023-02-17T13:26:09.980Z,13.47
2023-02-17T13:28:40.456Z,13.73
2023-02-17T13:31:16.545Z,15.23
2023-02-17T13:33:48.385Z,13.27
2023-02-17T13:36:21.973Z,11.57
2023-02-17T13:39:01.712Z,11.87
2023-02-17T13:41:34.579Z,12.27
2023-02-17T13:44:25.351Z,13.60
2023-02-17T13:46:57.866Z,13.40
2023-02-17T13:49:28.342Z,13.40
2023-02-17T13:51:56.464Z,13.20
2023-02-17T13:54:24.829Z,14.00
2023-02-17T13:56:53.897Z,14.37
2023-02-17T13:59:27.094Z,13.17
2023-02-17T14:01:56.611Z,13.53
2023-02-17T14:04:28.031Z,13.23
2023-02-17T14:06:59.558Z,13.87
2023-02-17T14:09:30.726Z,12.80
2023-02-17T14:12:02.250Z,14.00
2023-02-17T14:14:33.971Z,13.10
2023-02-17T14:17:05.780Z,13.60
2023-02-17T14:19:44.301Z,12.97
2023-02-17T14:22:25.977Z,13.10
2023-02-17T14:25:01.011Z,12.93
2023-02-17T14:27:29.304Z,12.17
2023-02-17T14:29:57.419Z,12.60
2023-02-17T14:32:32.754Z,14.13
2023-02-17T14:35:21.265Z,13.87
2023-02-17T14:37:50.480Z,14.97
2023-02-17T14:40:21.332Z,15.17
2023-02-17T14:42:49.492Z,14.93
2023-02-17T14:45:18.134Z,14.20
2023-02-17T14:47:48.191Z,15.63
2023-02-17T14:50:17.542Z,14.73
2023-02-17T14:52:47.545Z,15.77
2023-02-17T14:55:20.388Z,15.90
2023-02-17T14:57:48.541Z,15.27
2023-02-17T15:00:18.050Z,15.27
2023-02-17T15:02:47.902Z,15.40
2023-02-17T15:05:16.099Z,15.90
2023-02-17T15:07:44.381Z,16.67
2023-02-17T15:10:19.404Z,17.60
2023-02-17T15:12:48.172Z,15.90
2023-02-17T15:15:17.582Z,16.73
2023-02-17T15:17:47.335Z,20.20
2023-02-17T15:20:17.401Z,21.00
2023-02-17T15:22:45.782Z,18.70
2023-02-17T15:25:16.016Z,19.03
2023-02-17T15:27:44.750Z,18.13
2023-02-17T15:30:14.691Z,19.77
2023-02-17T15:32:43.180Z,18.30
2023-02-17T15:35:21.304Z,19.57
2023-02-17T15:37:49.831Z,18.40
2023-02-17T15:40:20.203Z,18.73
2023-02-17T15:42:54.276Z,18.20
2023-02-17T15:45:23.692Z,18.03
2023-02-17T15:47:53.767Z,18.17
2023-02-17T15:50:24.054Z,18.73
2023-02-17T15:52:52.556Z,18.10
2023-02-17T15:55:21.588Z,19.00
2023-02-17T15:57:52.279Z,20.30
2023-02-17T16:00:23.875Z,19.67
2023-02-17T16:02:52.631Z,20.10
2023-02-17T16:05:24.533Z,20.37
2023-02-17T16:07:53.209Z,21.63
2023-02-17T16:10:23.650Z,21.90
2023-02-17T16:12:53.474Z,21.10
2023-02-17T16:15:23.936Z,22.17
2023-02-17T16:17:52.494Z,23.97
2023-02-17T16:20:24.894Z,28.53
2023-02-17T16:22:53.274Z,28.10
2023-02-17T16:25:23.078Z,28.13
2023-02-17T16:27:53.282Z,26.80
2023-02-17T16:30:25.464Z,24.47
2023-02-17T16:32:53.904Z,25.60
2023-02-17T16:35:25.892Z,26.13
2023-02-17T16:37:57.167Z,26.83
2023-02-17T16:40:27.411Z,26.27
2023-02-17T16:42:55.780Z,23.23
2023-02-17T16:45:25.737Z,23.60
2023-02-17T16:47:57.019Z,24.20
2023-02-17T16:50:29.027Z,26.17
2023-02-17T16:53:00.336Z,32.87
2023-02-17T16:55:30.343Z,32.20
2023-02-17T16:57:59.188Z,30.37
2023-02-17T17:00:30.186Z,31.10
2023-02-17T17:02:59.258Z,30.80
2023-02-17T17:05:30.250Z,36.33
2023-02-17T17:07:58.538Z,40.43
2023-02-17T17:10:29.599Z,44.97
2023-02-17T17:12:57.714Z,43.47
2023-02-17T17:15:26.035Z,50.23
2023-02-17T17:17:58.419Z,47.37
2023-02-17T17:20:32.021Z,38.43
2023-02-17T17:23:01.057Z,29.27
2023-02-17T17:25:30.909Z,27.70
2023-02-17T17:27:59.458Z,28.03
2023-02-17T17:30:32.651Z,28.00
2023-02-17T17:33:00.828Z,31.17
2023-02-17T17:35:31.329Z,33.97
2023-02-17T17:38:00.116Z,37.97
2023-02-17T17:40:30.608Z,35.27
2023-02-17T17:42:59.057Z,30.93
2023-02-17T17:45:27.612Z,31.90
2023-02-17T17:47:55.717Z,30.80
2023-02-17T17:50:25.346Z,31.80
2023-02-17T17:52:54.956Z,32.03
2023-02-17T17:55:23.040Z,35.27
2023-02-17T17:57:51.145Z,34.13
2023-02-17T18:00:20.278Z,36.90
2023-02-17T18:02:48.573Z,35.80
2023-02-17T18:05:16.926Z,34.40
2023-02-17T18:07:47.960Z,32.60
2023-02-17T18:10:17.975Z,32.33
2023-02-17T18:12:47.747Z,33.63
2023-02-17T18:15:16.873Z,34.77
2023-02-17T18:17:45.221Z,34.23
2023-02-17T18:20:13.880Z,32.00
2023-02-17T18:22:42.402Z,31.20
2023-02-17T18:25:11.232Z,31.83
2023-02-17T18:27:42.319Z,27.50
2023-02-17T18:30:12.121Z,26.13
2023-02-17T18:32:40.240Z,29.83
2023-02-17T18:35:09.135Z,27.17
2023-02-17T18:37:37.473Z,23.70
2023-02-17T18:40:06.357Z,27.10
2023-02-17T18:42:34.632Z,25.00
2023-02-17T18:45:04.948Z,27.67
2023-02-17T18:47:33.409Z,24.90
2023-02-17T18:50:01.526Z,27.10
2023-02-17T18:52:29.610Z,28.47
2023-02-17T18:54:57.715Z,26.57
2023-02-17T18:57:25.926Z,38.07
2023-02-17T18:59:53.994Z,32.23
2023-02-17T19:02:23.540Z,29.33
2023-02-17T19:04:54.364Z,25.30
2023-02-17T19:07:23.126Z,25.17
2023-02-17T19:09:53.332Z,27.03
2023-02-17T19:12:21.846Z,24.13
2023-02-17T19:14:55.882Z,24.43
2023-02-17T19:17:26.657Z,22.10
2023-02-17T19:19:54.747Z,20.97
2023-02-17T19:22:22.974Z,23.40
2023-02-17T19:24:53.123Z,23.67
2023-02-17T19:27:21.876Z,20.60
2023-02-17T19:29:50.064Z,19.63
2023-02-17T19:32:18.298Z,21.60
2023-02-17T19:34:48.029Z,20.20
2023-02-17T19:37:16.437Z,21.53
2023-02-17T19:39:45.663Z,18.90
2023-02-17T19:42:13.918Z,17.80
2023-02-17T19:44:42.164Z,16.40
2023-02-17T19:47:10.330Z,14.83
2023-02-17T19:49:38.457Z,15.77
2023-02-17T19:52:08.921Z,15.40
2023-02-17T19:54:37.121Z,15.10
2023-02-17T19:57:05.393Z,18.00
2023-02-17T19:59:34.465Z,20.20
2023-02-17T20:02:02.764Z,20.07
2023-02-17T20:04:30.878Z,17.73
2023-02-17T20:06:59.030Z,16.50
2023-02-17T20:09:28.696Z,16.70
2023-02-17T20:11:56.907Z,16.87
2023-02-17T20:14:25.023Z,15.30
2023-02-17T20:16:55.691Z,13.87
2023-02-17T20:19:24.198Z,13.10
2023-02-17T20:21:52.863Z,12.33
2023-02-17T20:24:21.440Z,12.23
2023-02-17T20:26:53.731Z,12.83
2023-02-17T20:29:22.464Z,13.00
2023-02-17T20:31:51.023Z,13.73
2023-02-17T20:34:28.243Z,13.23
2023-02-17T20:36:57.439Z,12.27
2023-02-17T20:39:26.456Z,13.80
2023-02-17T20:41:56.966Z,13.20
2023-02-17T20:44:27.731Z,12.80
2023-02-17T20:46:57.072Z,12.43
2023-02-17T20:49:25.690Z,11.50
2023-02-17T20:51:54.445Z,13.33
2023-02-17T20:54:24.726Z,12.00
2023-02-17T20:56:53.403Z,12.60
2023-02-17T20:59:23.095Z,13.40
2023-02-17T21:01:51.193Z,12.90
2023-02-17T21:04:19.567Z,11.60
2023-02-17T21:06:48.205Z,12.30
2023-02-17T21:09:19.065Z,11.80
2023-02-17T21:11:47.994Z,10.13
2023-02-17T21:14:16.431Z,10.90
2023-02-17T21:16:46.499Z,10.70
2023-02-17T21:19:14.872Z,12.90
2023-02-17T21:21:42.975Z,11.13
2023-02-17T21:24:11.400Z,10.87
2023-02-17T21:26:39.765Z,10.50
2023-02-17T21:29:08.168Z,12.37
2023-02-17T21:31:37.216Z,11.20
2023-02-17T21:34:08.883Z,11.13
2023-02-17T21:36:37.063Z,10.90
2023-02-17T21:39:05.928Z,10.87
2023-02-17T21:41:34.215Z,11.00
2023-02-17T21:44:19.935Z,12.00
2023-02-17T21:46:48.082Z,10.83
2023-02-17T21:49:17.740Z,12.20
2023-02-17T21:51:45.925Z,11.57
2023-02-17T21:54:14.172Z,11.60
2023-02-17T21:56:42.426Z,10.83
2023-02-17T21:59:10.759Z,10.87
2023-02-17T22:01:39.026Z,11.80
2023-02-17T22:04:07.223Z,12.00
2023-02-17T22:06:38.566Z,10.90
2023-02-17T22:09:08.075Z,10.77
2023-02-17T22:11:37.951Z,10.50
2023-02-17T22:14:10.218Z,10.40
2023-02-17T22:16:39.423Z,11.40
2023-02-17T22:19:11.050Z,12.13
2023-02-17T22:21:42.461Z,12.80
2023-02-17T22:24:10.794Z,10.97
2023-02-17T22:26:38.972Z,11.83
2023-02-17T22:29:08.125Z,11.27
2023-02-17T22:31:36.485Z,11.90
2023-02-17T22:34:07.626Z,12.30
2023-02-17T22:36:38.204Z,11.70
2023-02-17T22:39:09.574Z,12.00
2023-02-17T22:41:38.885Z,11.80
2023-02-17T22:44:07.217Z,10.00
2023-02-17T22:46:36.102Z,11.20
2023-02-17T22:49:04.451Z,10.40
2023-02-17T22:51:36.656Z,11.40
2023-02-17T22:54:05.364Z,11.20
2023-02-17T22:56:35.020Z,12.03
2023-02-17T22:59:05.008Z,11.60
2023-02-17T23:01:35.074Z,12.20
2023-02-17T23:04:03.740Z,12.83
2023-02-17T23:06:35.061Z,12.40
2023-02-17T23:09:04.172Z,10.53
2023-02-17T23:11:51.120Z,10.80
2023-02-17T23:14:21.138Z,10.47
2023-02-17T23:16:49.825Z,9.93
2023-02-17T23:19:20.253Z,10.77
2023-02-17T23:21:51.459Z,10.93
2023-02-17T23:24:21.469Z,11.27
2023-02-17T23:26:51.570Z,12.27
2023-02-17T23:29:20.376Z,10.20
2023-02-17T23:31:48.736Z,10.80
2023-02-17T23:34:17.884Z,11.40
2023-02-17T23:36:47.069Z,10.33
2023-02-17T23:39:16.178Z,10.43
2023-02-17T23:41:44.490Z,10.30
2023-02-17T23:44:16.296Z,10.47
2023-02-17T23:46:46.019Z,8.80
2023-02-17T23:49:16.706Z,11.40
2023-02-17T23:51:46.925Z,10.50
2023-02-17T23:54:15.785Z,9.60
2023-02-17T23:56:44.083Z,10.87
2023-02-17T23:59:13.798Z,10.53
